createdAt,value
2018-10-01T00:02:15.287Z,58.90
2018-10-01T00:04:43.456Z,58.90
2018-10-01T00:07:11.662Z,58.90
2018-10-01T00:09:39.851Z,59.00
2018-10-01T00:12:08.022Z,59.00
2018-10-01T00:14:36.198Z,59.00
2018-10-01T00:17:04.407Z,59.20
2018-10-01T00:19:37.962Z,59.30
2018-10-01T00:22:11.430Z,59.40
2018-10-01T00:24:39.615Z,59.40
2018-10-01T00:27:07.815Z,59.40
2018-10-01T00:29:36.000Z,59.50
2018-10-01T00:32:04.203Z,59.60
2018-10-01T00:34:32.366Z,59.70
2018-10-01T00:37:00.588Z,60.70
2018-10-01T00:39:28.791Z,59.90
2018-10-01T00:41:56.955Z,60.10
2018-10-01T00:44:25.206Z,60.40
2018-10-01T00:46:53.378Z,60.40
2018-10-01T00:49:21.551Z,60.50
2018-10-01T00:51:49.707Z,60.80
2018-10-01T00:54:17.866Z,61.00
2018-10-01T00:56:46.131Z,61.20
2018-10-01T00:59:14.282Z,61.50
2018-10-01T01:01:42.446Z,61.60
2018-10-01T01:04:10.622Z,61.70
2018-10-01T01:06:38.831Z,61.60
2018-10-01T01:09:07.814Z,61.60
2018-10-01T01:11:35.985Z,61.70
2018-10-01T01:14:04.146Z,61.70
2018-10-01T01:16:32.342Z,61.80
2018-10-01T01:19:00.516Z,61.70
2018-10-01T01:21:28.895Z,62.00
2018-10-01T01:23:57.073Z,62.00
2018-10-01T01:26:25.240Z,62.20
2018-10-01T01:28:53.438Z,62.20
2018-10-01T01:31:21.626Z,62.30
2018-10-01T01:33:49.802Z,62.30
2018-10-01T01:36:17.965Z,62.20
2018-10-01T01:38:46.122Z,62.20
2018-10-01T01:41:14.694Z,62.20
2018-10-01T01:43:42.862Z,62.40
2018-10-01T01:46:11.049Z,62.50
2018-10-01T01:48:39.231Z,62.60
2018-10-01T01:51:07.480Z,62.50
2018-10-01T01:53:35.655Z,62.70
2018-10-01T01:56:03.828Z,62.70
2018-10-01T01:58:32.031Z,62.70
2018-10-01T02:01:00.198Z,62.60
2018-10-01T02:03:28.394Z,62.60
2018-10-01T02:05:56.558Z,62.60
2018-10-01T02:08:24.924Z,62.60
2018-10-01T02:10:53.146Z,62.70
2018-10-01T02:13:21.299Z,62.80
2018-10-01T02:15:49.498Z,62.70
2018-10-01T02:18:17.674Z,62.70
2018-10-01T02:20:45.830Z,62.60
2018-10-01T02:23:13.964Z,62.80
2018-10-01T02:25:42.123Z,62.70
2018-10-01T02:28:10.262Z,62.70
2018-10-01T02:30:38.427Z,62.50
2018-10-01T02:33:06.586Z,62.50
2018-10-01T02:35:34.782Z,62.50
2018-10-01T02:38:02.953Z,62.60
2018-10-01T02:40:31.275Z,62.60
2018-10-01T02:42:59.419Z,62.50
2018-10-01T02:45:27.570Z,62.50
2018-10-01T02:47:55.719Z,62.50
2018-10-01T02:50:23.898Z,62.40
2018-10-01T02:52:57.607Z,62.40
2018-10-01T02:55:25.782Z,62.30
2018-10-01T02:57:53.920Z,62.30
2018-10-01T03:00:22.106Z,62.40
2018-10-01T03:02:50.258Z,62.30
2018-10-01T03:05:18.403Z,62.30
2018-10-01T03:07:46.563Z,62.40
2018-10-01T03:10:14.755Z,62.30
2018-10-01T03:12:42.918Z,62.20
2018-10-01T03:15:11.114Z,62.30
2018-10-01T03:17:39.288Z,62.40
2018-10-01T03:20:07.839Z,62.40
2018-10-01T03:22:36.021Z,62.30
2018-10-01T03:25:04.212Z,62.30
2018-10-01T03:27:32.548Z,62.40
2018-10-01T03:30:00.712Z,62.40
2018-10-01T03:32:28.874Z,62.30
2018-10-01T03:34:57.027Z,62.30
2018-10-01T03:37:25.187Z,62.40
2018-10-01T03:39:53.412Z,62.20
2018-10-01T03:42:21.559Z,62.30
2018-10-01T03:44:49.797Z,62.40
2018-10-01T03:47:17.976Z,62.30
2018-10-01T03:49:46.138Z,62.30
2018-10-01T03:52:14.318Z,62.40
2018-10-01T03:54:42.503Z,62.20
2018-10-01T03:57:11.321Z,62.30
2018-10-01T03:59:39.598Z,62.30
2018-10-01T04:02:08.171Z,62.40
2018-10-01T04:04:36.320Z,62.20
2018-10-01T04:07:04.626Z,62.40
2018-10-01T04:09:32.790Z,62.40
2018-10-01T04:12:00.948Z,62.30
2018-10-01T04:14:29.102Z,62.10
2018-10-01T04:16:57.260Z,62.10
2018-10-01T04:19:25.437Z,62.20
2018-10-01T04:21:53.634Z,62.10
2018-10-01T04:24:21.837Z,62.10
2018-10-01T04:26:49.971Z,61.90
2018-10-01T04:29:18.148Z,61.90
2018-10-01T04:31:46.652Z,61.70
2018-10-01T04:34:14.834Z,61.80
2018-10-01T04:36:43.046Z,61.80
2018-10-01T04:39:13.137Z,61.80
2018-10-01T04:41:41.806Z,61.50
2018-10-01T04:44:10.393Z,61.30
2018-10-01T04:46:39.486Z,60.70
2018-10-01T04:49:08.463Z,61.30
2018-10-01T04:51:36.633Z,61.30
2018-10-01T04:54:04.856Z,61.20
2018-10-01T04:56:33.084Z,61.30
2018-10-01T04:59:01.243Z,61.20
2018-10-01T05:01:29.469Z,61.30
2018-10-01T05:03:57.634Z,61.30
2018-10-01T05:06:25.850Z,61.30
2018-10-01T05:08:54.022Z,61.30
2018-10-01T05:11:22.183Z,61.00
2018-10-01T05:13:50.332Z,60.80
2018-10-01T05:16:18.544Z,60.60
2018-10-01T05:18:46.767Z,60.80
2018-10-01T05:21:15.015Z,60.70
2018-10-01T05:23:43.310Z,60.70
2018-10-01T05:26:11.590Z,60.50
2018-10-01T05:28:39.754Z,60.60
2018-10-01T05:31:07.926Z,60.60
2018-10-01T05:33:36.318Z,60.50
2018-10-01T05:36:04.491Z,61.30
2018-10-01T05:38:32.646Z,60.50
2018-10-01T05:41:00.831Z,60.50
2018-10-01T05:43:29.014Z,60.60
2018-10-01T05:45:57.190Z,60.30
2018-10-01T05:48:25.363Z,60.40
2018-10-01T05:50:53.546Z,60.40
2018-10-01T05:53:22.216Z,61.10
2018-10-01T05:55:51.047Z,60.50
2018-10-01T05:58:19.208Z,60.60
2018-10-01T06:00:47.374Z,60.70
2018-10-01T06:03:15.598Z,60.50
2018-10-01T06:05:43.883Z,60.80
2018-10-01T06:08:12.055Z,60.70
2018-10-01T06:10:40.245Z,60.70
2018-10-01T06:13:08.406Z,60.80
2018-10-01T06:15:36.555Z,60.50
2018-10-01T06:18:04.729Z,60.70
2018-10-01T06:20:32.975Z,61.00
2018-10-01T06:23:01.135Z,60.70
2018-10-01T06:25:29.294Z,60.70
2018-10-01T06:27:57.446Z,60.90
2018-10-01T06:30:25.606Z,60.90
2018-10-01T06:32:53.803Z,60.70
2018-10-01T06:35:21.946Z,60.90
2018-10-01T06:37:50.117Z,60.90
2018-10-01T06:40:18.247Z,60.70
2018-10-01T06:42:46.410Z,60.90
2018-10-01T06:45:14.568Z,61.80
2018-10-01T06:47:42.730Z,62.00
2018-10-01T06:50:10.884Z,61.10
2018-10-01T06:52:39.031Z,60.90
2018-10-01T06:55:07.188Z,60.80
2018-10-01T06:57:35.351Z,60.80
2018-10-01T07:00:03.524Z,60.70
2018-10-01T07:02:31.715Z,60.80
2018-10-01T07:04:59.891Z,60.70
2018-10-01T07:07:28.061Z,60.60
2018-10-01T07:09:56.324Z,60.60
2018-10-01T07:12:24.506Z,60.40
2018-10-01T07:14:52.707Z,60.40
2018-10-01T07:17:20.975Z,60.40
2018-10-01T07:19:49.220Z,60.30
2018-10-01T07:22:17.380Z,60.10
2018-10-01T07:24:45.645Z,60.10
2018-10-01T07:27:13.795Z,60.20
2018-10-01T07:29:42.158Z,60.10
2018-10-01T07:32:10.341Z,60.20
2018-10-01T07:34:38.555Z,60.20
2018-10-01T07:37:06.858Z,60.20
2018-10-01T07:39:35.100Z,60.20
2018-10-01T07:42:03.367Z,60.40
2018-10-01T07:44:31.562Z,60.40
2018-10-01T07:46:59.737Z,60.40
2018-10-01T07:49:27.930Z,60.10
2018-10-01T07:51:56.191Z,60.20
2018-10-01T07:54:24.346Z,60.10
2018-10-01T07:56:52.561Z,59.80
2018-10-01T07:59:20.831Z,59.60
2018-10-01T08:01:48.965Z,59.60
2018-10-01T08:04:17.180Z,59.40
2018-10-01T08:06:45.367Z,59.10
2018-10-01T08:09:13.521Z,59.00
2018-10-01T08:11:41.687Z,58.70
2018-10-01T08:14:09.917Z,58.40
2018-10-01T08:16:38.038Z,58.40
2018-10-01T08:19:06.200Z,58.10
2018-10-01T08:21:34.367Z,58.00
2018-10-01T08:24:02.565Z,57.70
2018-10-01T08:26:30.741Z,57.80
2018-10-01T08:28:58.897Z,57.70
2018-10-01T08:31:27.073Z,57.40
2018-10-01T08:33:55.238Z,57.20
2018-10-01T08:36:23.416Z,57.10
2018-10-01T08:38:51.718Z,56.50
2018-10-01T08:41:19.888Z,56.70
2018-10-01T08:43:48.011Z,56.50
2018-10-01T08:46:16.187Z,56.20
2018-10-01T08:48:48.699Z,55.90
2018-10-01T08:51:21.479Z,55.90
2018-10-01T08:53:55.203Z,56.20
2018-10-01T08:56:23.422Z,54.90
2018-10-01T08:58:51.568Z,54.80
2018-10-01T09:01:19.736Z,54.80
2018-10-01T09:03:47.929Z,54.50
2018-10-01T09:06:16.141Z,54.70
2018-10-01T09:08:44.434Z,54.90
2018-10-01T09:11:12.683Z,54.50
2018-10-01T09:13:40.795Z,54.20
2018-10-01T09:16:09.106Z,54.10
2018-10-01T09:18:37.327Z,54.20
2018-10-01T09:21:05.541Z,54.00
2018-10-01T09:23:33.704Z,53.70
2018-10-01T09:26:01.946Z,53.60
2018-10-01T09:28:30.122Z,53.70
2018-10-01T09:30:58.648Z,53.50
2018-10-01T09:33:26.802Z,53.10
2018-10-01T09:35:55.041Z,52.90
2018-10-01T09:38:23.300Z,52.90
2018-10-01T09:40:51.460Z,52.90
2018-10-01T09:43:19.666Z,52.80
2018-10-01T09:45:47.860Z,52.90
2018-10-01T09:48:16.028Z,53.10
2018-10-01T09:50:44.195Z,53.10
2018-10-01T09:53:12.374Z,52.60
2018-10-01T09:55:40.554Z,52.60
2018-10-01T09:58:08.829Z,52.90
2018-10-01T10:00:43.778Z,53.50
2018-10-01T10:03:12.555Z,52.50
2018-10-01T10:05:40.728Z,51.90
2018-10-01T10:08:08.905Z,51.80
2018-10-01T10:10:37.047Z,52.30
2018-10-01T10:13:05.187Z,51.50
2018-10-01T10:15:33.314Z,51.70
2018-10-01T10:18:01.600Z,51.90
2018-10-01T10:20:29.772Z,52.30
2018-10-01T10:22:57.910Z,52.20
2018-10-01T10:25:26.073Z,51.70
2018-10-01T10:27:54.313Z,51.20
2018-10-01T10:30:22.519Z,51.10
2018-10-01T10:32:50.707Z,51.00
2018-10-01T10:35:18.863Z,50.90
2018-10-01T10:37:46.986Z,50.80
2018-10-01T10:40:15.167Z,50.50
2018-10-01T10:42:43.335Z,50.40
2018-10-01T10:45:11.489Z,50.20
2018-10-01T10:47:39.683Z,50.30
2018-10-01T10:50:08.615Z,50.40
2018-10-01T10:52:36.762Z,50.90
2018-10-01T10:55:05.306Z,51.30
2018-10-01T10:57:33.463Z,51.70
2018-10-01T11:00:01.655Z,52.10
2018-10-01T11:02:29.863Z,52.30
2018-10-01T11:04:58.013Z,52.70
2018-10-01T11:07:26.189Z,52.10
2018-10-01T11:09:54.494Z,51.80
2018-10-01T11:12:23.030Z,51.60
2018-10-01T11:14:51.395Z,51.60
2018-10-01T11:17:19.432Z,52.10
2018-10-01T11:19:47.681Z,52.90
2018-10-01T11:22:15.773Z,54.00
2018-10-01T11:24:43.966Z,55.00
2018-10-01T11:27:12.186Z,55.50
2018-10-01T11:29:40.328Z,55.30
2018-10-01T11:32:08.543Z,54.80
2018-10-01T11:34:36.752Z,54.30
2018-10-01T11:37:05.219Z,54.90
2018-10-01T11:39:33.453Z,53.90
2018-10-01T11:42:01.763Z,53.70
2018-10-01T11:44:29.978Z,53.80
2018-10-01T11:46:58.162Z,53.60
2018-10-01T11:49:26.376Z,53.60
2018-10-01T11:51:54.543Z,53.30
2018-10-01T11:54:22.748Z,53.50
2018-10-01T11:56:50.903Z,53.40
2018-10-01T11:59:19.087Z,53.20
2018-10-01T12:01:47.303Z,53.30
2018-10-01T12:04:15.681Z,53.40
2018-10-01T12:06:43.802Z,53.30
2018-10-01T12:09:12.655Z,53.10
2018-10-01T12:11:41.110Z,53.20
2018-10-01T12:14:10.251Z,53.10
2018-10-01T12:16:38.414Z,53.10
2018-10-01T12:19:06.914Z,53.00
2018-10-01T12:21:35.288Z,52.80
2018-10-01T12:24:05.116Z,54.00
2018-10-01T12:26:34.146Z,54.10
2018-10-01T12:29:02.550Z,53.40
2018-10-01T12:31:30.659Z,53.80
2018-10-01T12:33:58.924Z,54.10
2018-10-01T12:36:27.165Z,54.50
2018-10-01T12:38:55.423Z,54.50
2018-10-01T12:41:23.638Z,54.40
2018-10-01T12:43:52.021Z,54.30
2018-10-01T12:46:20.199Z,54.30
2018-10-01T12:48:48.375Z,54.50
2018-10-01T12:51:16.690Z,54.50
2018-10-01T12:53:44.822Z,54.50
2018-10-01T12:56:12.975Z,54.30
2018-10-01T12:58:41.720Z,54.50
2018-10-01T13:01:10.208Z,54.40
2018-10-01T13:03:38.391Z,53.90
2018-10-01T13:06:06.671Z,53.80
2018-10-01T13:08:35.061Z,52.70
2018-10-01T13:11:03.217Z,51.30
2018-10-01T13:13:31.405Z,49.90
2018-10-01T13:15:59.568Z,49.20
2018-10-01T13:18:27.811Z,48.70
2018-10-01T13:20:56.088Z,48.50
2018-10-01T13:23:24.511Z,48.40
2018-10-01T13:25:53.122Z,48.30
2018-10-01T13:28:21.427Z,48.30
2018-10-01T13:30:50.082Z,48.30
2018-10-01T13:33:18.280Z,48.20
2018-10-01T13:35:46.670Z,48.30
2018-10-01T13:38:15.009Z,49.30
2018-10-01T13:40:43.508Z,50.00
2018-10-01T13:43:12.080Z,50.70
2018-10-01T13:45:40.581Z,51.20
2018-10-01T13:48:09.178Z,51.20
2018-10-01T13:50:37.637Z,51.20
2018-10-01T13:53:06.025Z,51.10
2018-10-01T13:55:34.404Z,51.70
2018-10-01T13:58:02.740Z,52.10
2018-10-01T14:00:31.101Z,52.10
2018-10-01T14:02:59.411Z,52.10
2018-10-01T14:05:27.763Z,52.10
2018-10-01T14:07:56.149Z,52.30
2018-10-01T14:10:24.564Z,52.50
2018-10-01T14:12:52.950Z,52.30
2018-10-01T14:15:21.354Z,51.80
2018-10-01T14:17:49.812Z,51.30
2018-10-01T14:20:18.099Z,50.60
2018-10-01T14:22:46.691Z,50.10
2018-10-01T14:25:15.283Z,49.80
2018-10-01T14:27:44.403Z,49.50
2018-10-01T14:30:12.805Z,49.20
2018-10-01T14:32:41.342Z,49.10
2018-10-01T14:35:09.672Z,49.00
2018-10-01T14:37:38.118Z,49.00
2018-10-01T14:40:06.463Z,49.10
2018-10-01T14:42:34.743Z,49.50
2018-10-01T14:45:02.975Z,50.10
2018-10-01T14:47:31.281Z,50.70
2018-10-01T14:49:59.627Z,51.00
2018-10-01T14:52:27.782Z,50.60
2018-10-01T14:54:56.018Z,50.70
2018-10-01T14:57:24.187Z,50.70
2018-10-01T14:59:52.396Z,50.30
2018-10-01T15:02:20.580Z,50.80
2018-10-01T15:04:48.727Z,52.10
2018-10-01T15:07:16.929Z,52.60
2018-10-01T15:09:45.122Z,53.40
2018-10-01T15:12:13.548Z,53.10
2018-10-01T15:14:41.682Z,52.30
2018-10-01T15:17:09.883Z,50.90
2018-10-01T15:19:38.069Z,50.20
2018-10-01T15:22:06.297Z,49.10
2018-10-01T15:24:34.551Z,50.10
2018-10-01T15:27:02.720Z,50.50
2018-10-01T15:29:30.908Z,49.80
2018-10-01T15:31:59.093Z,48.50
2018-10-01T15:34:27.297Z,48.30
2018-10-01T15:36:55.517Z,49.70
2018-10-01T15:39:23.674Z,50.00
2018-10-01T15:41:51.812Z,50.00
2018-10-01T15:44:20.113Z,50.00
2018-10-01T15:46:48.773Z,50.30
2018-10-01T15:49:16.999Z,50.50
2018-10-01T15:51:45.155Z,50.80
2018-10-01T15:54:13.314Z,51.10
2018-10-01T15:56:41.491Z,51.50
2018-10-01T15:59:09.683Z,51.70
2018-10-01T16:01:37.844Z,51.70
2018-10-01T16:04:06.125Z,51.80
2018-10-01T16:06:34.309Z,52.20
2018-10-01T16:09:02.468Z,52.40
2018-10-01T16:11:30.894Z,52.50
2018-10-01T16:13:59.235Z,52.60
2018-10-01T16:16:27.432Z,52.90
2018-10-01T16:18:55.627Z,53.10
2018-10-01T16:21:23.812Z,52.90
2018-10-01T16:23:51.984Z,52.80
2018-10-01T16:26:20.138Z,52.90
2018-10-01T16:28:48.383Z,53.00
2018-10-01T16:31:16.615Z,52.70
2018-10-01T16:33:44.746Z,53.00
2018-10-01T16:36:13.183Z,53.50
2018-10-01T16:38:41.647Z,53.80
2018-10-01T16:41:09.945Z,53.70
2018-10-01T16:43:38.132Z,53.60
2018-10-01T16:46:06.371Z,53.60
2018-10-01T16:48:34.583Z,53.70
2018-10-01T16:51:02.886Z,53.90
2018-10-01T16:53:31.084Z,54.00
2018-10-01T16:55:59.323Z,54.10
2018-10-01T16:58:27.841Z,54.20
2018-10-01T17:00:56.103Z,54.30
2018-10-01T17:03:24.528Z,54.20
2018-10-01T17:05:56.509Z,54.30
2018-10-01T17:08:25.378Z,54.40
2018-10-01T17:10:53.831Z,54.30
2018-10-01T17:13:22.466Z,54.40
2018-10-01T17:15:50.692Z,54.30
2018-10-01T17:18:19.131Z,54.30
2018-10-01T17:20:47.281Z,53.80
2018-10-01T17:23:15.460Z,54.20
2018-10-01T17:25:43.754Z,54.00
2018-10-01T17:28:12.025Z,54.00
2018-10-01T17:30:40.448Z,53.90
2018-10-01T17:33:08.676Z,54.00
2018-10-01T17:35:36.916Z,53.90
2018-10-01T17:38:05.187Z,53.60
2018-10-01T17:40:33.371Z,53.50
2018-10-01T17:43:01.626Z,53.50
2018-10-01T17:45:29.859Z,53.20
2018-10-01T17:47:58.255Z,52.90
2018-10-01T17:50:26.863Z,52.90
2018-10-01T17:52:55.058Z,52.70
2018-10-01T17:55:23.206Z,52.70
2018-10-01T17:57:51.370Z,52.90
2018-10-01T18:00:19.822Z,52.90
2018-10-01T18:02:48.034Z,53.10
2018-10-01T18:05:16.214Z,53.00
2018-10-01T18:07:44.458Z,53.10
2018-10-01T18:10:12.623Z,53.10
2018-10-01T18:12:40.923Z,53.20
2018-10-01T18:15:09.531Z,53.40
2018-10-01T18:17:37.760Z,53.30
2018-10-01T18:20:05.972Z,53.40
2018-10-01T18:22:34.131Z,53.40
2018-10-01T18:25:02.488Z,53.40
2018-10-01T18:27:30.647Z,53.60
2018-10-01T18:29:58.825Z,53.60
2018-10-01T18:32:27.119Z,53.60
2018-10-01T18:34:55.452Z,53.80
2018-10-01T18:37:23.608Z,53.80
2018-10-01T18:39:51.929Z,53.90
2018-10-01T18:42:20.139Z,54.00
2018-10-01T18:44:48.231Z,54.00
2018-10-01T18:47:16.410Z,54.10
2018-10-01T18:49:44.575Z,54.20
2018-10-01T18:52:12.851Z,54.40
2018-10-01T18:54:41.031Z,54.40
2018-10-01T18:57:09.366Z,55.10
2018-10-01T18:59:37.559Z,54.80
2018-10-01T19:02:05.777Z,54.90
2018-10-01T19:04:34.236Z,55.00
2018-10-01T19:07:02.427Z,55.20
2018-10-01T19:09:30.617Z,55.40
2018-10-01T19:11:58.839Z,55.40
2018-10-01T19:14:26.935Z,55.70
2018-10-01T19:16:55.165Z,56.40
2018-10-01T19:19:23.274Z,55.90
2018-10-01T19:21:51.426Z,56.00
2018-10-01T19:24:19.644Z,56.00
2018-10-01T19:26:47.800Z,56.10
2018-10-01T19:29:15.917Z,56.30
2018-10-01T19:31:44.201Z,56.40
2018-10-01T19:34:12.300Z,56.60
2018-10-01T19:36:40.471Z,56.60
2018-10-01T19:39:09.081Z,56.70
2018-10-01T19:41:37.234Z,56.90
2018-10-01T19:44:05.473Z,56.80
2018-10-01T19:46:33.835Z,57.00
2018-10-01T19:49:02.016Z,57.20
2018-10-01T19:51:30.215Z,57.30
2018-10-01T19:53:58.403Z,57.10
2018-10-01T19:56:26.595Z,57.20
2018-10-01T19:58:54.824Z,57.30
2018-10-01T20:01:22.938Z,57.50
2018-10-01T20:03:51.195Z,57.40
2018-10-01T20:06:19.400Z,57.50
2018-10-01T20:08:47.644Z,57.50
2018-10-01T20:11:15.863Z,57.60
2018-10-01T20:13:44.005Z,57.50
2018-10-01T20:16:12.309Z,57.80
2018-10-01T20:18:40.502Z,57.70
2018-10-01T20:21:08.754Z,57.80
2018-10-01T20:23:37.606Z,57.90
2018-10-01T20:26:05.873Z,57.80
2018-10-01T20:28:34.313Z,58.00
2018-10-01T20:31:02.459Z,58.20
2018-10-01T20:33:30.627Z,58.20
2018-10-01T20:35:58.978Z,58.20
2018-10-01T20:38:27.079Z,58.20
2018-10-01T20:40:55.300Z,58.10
2018-10-01T20:43:23.463Z,58.10
2018-10-01T20:45:51.778Z,58.20
2018-10-01T20:48:19.910Z,58.20
2018-10-01T20:50:48.070Z,58.30
2018-10-01T20:53:16.517Z,58.30
2018-10-01T20:55:44.716Z,58.20
2018-10-01T20:58:12.867Z,58.30
2018-10-01T21:00:41.078Z,58.10
2018-10-01T21:03:09.255Z,58.20
2018-10-01T21:05:37.448Z,58.80
2018-10-01T21:08:05.629Z,58.20
2018-10-01T21:10:33.807Z,58.10
2018-10-01T21:13:01.981Z,58.20
2018-10-01T21:15:30.146Z,58.10
2018-10-01T21:17:58.314Z,58.30
2018-10-01T21:20:26.448Z,58.20
2018-10-01T21:22:54.636Z,58.20
2018-10-01T21:25:22.795Z,58.30
2018-10-01T21:27:50.943Z,58.20
2018-10-01T21:30:19.147Z,58.90
2018-10-01T21:32:47.339Z,58.30
2018-10-01T21:35:15.508Z,58.30
2018-10-01T21:37:43.659Z,58.40
2018-10-01T21:40:12.855Z,58.40
2018-10-01T21:42:41.098Z,58.50
2018-10-01T21:45:10.128Z,58.60
2018-10-01T21:47:38.291Z,58.50
2018-10-01T21:50:06.456Z,58.50
2018-10-01T21:52:34.643Z,58.60
2018-10-01T21:55:02.815Z,58.50
2018-10-01T21:57:30.967Z,58.70
2018-10-01T21:59:59.154Z,58.60
2018-10-01T22:02:27.327Z,58.70
2018-10-01T22:04:55.496Z,58.80
2018-10-01T22:07:23.684Z,58.80
2018-10-01T22:09:51.912Z,58.70
2018-10-01T22:12:20.093Z,58.80
2018-10-01T22:14:48.255Z,59.00
2018-10-01T22:17:16.415Z,58.90
2018-10-01T22:19:44.607Z,59.00
2018-10-01T22:22:12.783Z,58.90
2018-10-01T22:24:41.037Z,59.10
2018-10-01T22:27:09.182Z,59.00
2018-10-01T22:29:37.367Z,59.20
2018-10-01T22:32:05.587Z,59.40
2018-10-01T22:34:33.820Z,59.30
2018-10-01T22:37:02.080Z,59.30
2018-10-01T22:39:30.263Z,59.40
2018-10-01T22:41:58.469Z,60.10
2018-10-01T22:44:26.618Z,59.40
2018-10-01T22:46:54.847Z,59.50
2018-10-01T22:49:23.050Z,59.50
2018-10-01T22:51:51.319Z,59.50
2018-10-01T22:54:19.590Z,59.70
2018-10-01T22:56:47.788Z,59.60
2018-10-01T22:59:15.983Z,59.60
2018-10-01T23:01:44.182Z,59.80
2018-10-01T23:04:12.352Z,59.80
2018-10-01T23:06:40.536Z,59.80
2018-10-01T23:09:09.172Z,59.80
2018-10-01T23:11:37.423Z,59.90
2018-10-01T23:14:05.718Z,59.70
2018-10-01T23:16:34.244Z,59.90
2018-10-01T23:19:02.442Z,60.00
2018-10-01T23:21:30.611Z,60.20
2018-10-01T23:23:58.778Z,60.30
2018-10-01T23:26:26.974Z,60.30
2018-10-01T23:28:55.143Z,60.30
2018-10-01T23:31:23.339Z,60.20
2018-10-01T23:33:51.526Z,60.30
2018-10-01T23:36:19.747Z,61.20
2018-10-01T23:38:47.922Z,60.40
2018-10-01T23:41:16.182Z,60.30
2018-10-01T23:43:44.350Z,60.40
2018-10-01T23:46:12.570Z,60.50
2018-10-01T23:48:40.755Z,60.70
2018-10-01T23:51:09.003Z,60.80
2018-10-01T23:53:37.191Z,61.00
2018-10-01T23:56:05.368Z,60.80
2018-10-01T23:58:34.368Z,61.00
